Aurora, Nebraska
Current Conditions -  °F | °C
As of 3:55 PM on Thursday 27 Nov 2014 (Local Time) from KAUH Reporting Station
Clear Clear  
Wind Chill: 27°   Ceiling: Unl
Heat Index: 36°   Visibility: 10mi
Dew Point: 17°   Wind: 13mph
Humidity: 47%   Direction: 170°S
Pressure: 30.2"   Gusts: NA
Location:  40.87°N, 98°W
Report Text: KAUH 272155Z AUTO 17011KT 10SM CLR 02/M08 A3020 RMK AO2 T00211082
Loading
Personal Weather Stations






























Interactive Weather Map New forecast layout! Learn more

10-Day Weather Forecast

Advertisements
Track Severe Weather on mobile